createdAt,value
2022-09-23T00:01:21.237Z,100276.53
2022-09-23T00:03:49.342Z,100275.09
2022-09-23T00:06:19.452Z,100280.06
2022-09-23T00:08:47.570Z,100275.38
2022-09-23T00:11:19.575Z,100271.50
2022-09-23T00:13:50.133Z,100284.59
2022-09-23T00:16:23.703Z,100280.44
2022-09-23T00:18:51.032Z,100280.88
2022-09-23T00:21:19.887Z,100279.72
2022-09-23T00:23:47.622Z,100277.28
2022-09-23T00:26:17.652Z,100269.19
2022-09-23T00:28:45.959Z,100267.44
2022-09-23T00:31:24.755Z,100269.19
2022-09-23T00:33:59.920Z,100268.72
2022-09-23T00:36:28.155Z,100253.78
2022-09-23T00:38:56.077Z,100246.84
2022-09-23T00:41:24.057Z,100253.19
2022-09-23T00:43:57.111Z,100252.50
2022-09-23T00:46:34.565Z,100247.09
2022-09-23T00:49:34.854Z,100246.38
2022-09-23T00:52:07.525Z,100253.63
2022-09-23T00:54:38.110Z,100250.22
2022-09-23T00:57:06.087Z,100254.03
2022-09-23T00:59:34.807Z,100252.31
2022-09-23T01:02:02.673Z,100253.31
2022-09-23T01:04:30.183Z,100249.91
2022-09-23T01:06:57.356Z,100251.16
2022-09-23T01:09:25.271Z,100246.91
2022-09-23T01:12:04.545Z,100235.38
2022-09-23T01:15:06.117Z,100230.25
2022-09-23T01:17:55.821Z,100240.59
2022-09-23T01:20:54.224Z,100226.25
2022-09-23T01:23:57.393Z,100236.34
2022-09-23T01:26:48.734Z,100232.91
2022-09-23T01:29:46.826Z,100238.47
2022-09-23T01:32:19.036Z,100233.06
2022-09-23T01:34:47.102Z,100235.78
2022-09-23T01:37:24.927Z,100240.31
2022-09-23T01:40:01.907Z,100240.44
2022-09-23T01:43:08.988Z,100235.78
2022-09-23T01:45:46.764Z,100242.28
2022-09-23T01:48:20.196Z,100251.22
2022-09-23T01:51:02.720Z,100252.06
2022-09-23T01:53:30.127Z,100256.50
2022-09-23T01:56:00.753Z,100250.25
2022-09-23T01:59:04.620Z,100260.91
2022-09-23T02:01:55.528Z,100253.91
2022-09-23T02:04:30.552Z,100259.59
2022-09-23T02:07:02.925Z,100256.44
2022-09-23T02:09:37.787Z,100250.34
2022-09-23T02:12:09.613Z,100246.91
2022-09-23T02:14:44.408Z,100246.47
2022-09-23T02:17:17.163Z,100252.00
2022-09-23T02:19:48.921Z,100242.22
2022-09-23T02:22:20.582Z,100252.09
2022-09-23T02:24:49.423Z,100249.41
2022-09-23T02:27:35.454Z,100248.31
2022-09-23T02:30:05.925Z,100252.28
2022-09-23T02:32:39.705Z,100246.91
2022-09-23T02:35:45.922Z,100273.75
2022-09-23T02:38:19.717Z,100274.47
2022-09-23T02:41:16.872Z,100263.56
2022-09-23T02:43:59.929Z,100260.88
2022-09-23T02:46:31.599Z,100251.78
2022-09-23T02:49:21.950Z,100250.91
2022-09-23T02:51:49.819Z,100251.78
2022-09-23T02:54:27.787Z,100239.13
2022-09-23T02:56:55.476Z,100239.84
2022-09-23T02:59:23.185Z,100234.44
2022-09-23T03:02:14.158Z,100242.69
2022-09-23T03:05:12.704Z,100237.56
2022-09-23T03:07:53.088Z,100240.06
2022-09-23T03:10:26.350Z,100233.22
2022-09-23T03:13:01.560Z,100238.06
2022-09-23T03:15:55.725Z,100239.31
2022-09-23T03:18:37.297Z,100226.94
2022-09-23T03:21:11.824Z,100230.91
2022-09-23T03:23:41.261Z,100235.69
2022-09-23T03:26:12.972Z,100240.50
2022-09-23T03:28:43.295Z,100242.34
2022-09-23T03:31:12.332Z,100248.88
2022-09-23T03:33:43.340Z,100243.88
2022-09-23T03:36:30.611Z,100252.81
2022-09-23T03:39:04.673Z,100263.84
2022-09-23T03:41:37.985Z,100271.09
2022-09-23T03:44:07.204Z,100279.44
2022-09-23T03:46:36.180Z,100270.50
2022-09-23T03:49:12.779Z,100286.81
2022-09-23T03:51:44.422Z,100282.38
2022-09-23T03:54:12.033Z,100281.41
2022-09-23T03:56:42.907Z,100284.81
2022-09-23T03:59:10.247Z,100293.50
2022-09-23T04:01:38.070Z,100287.97
2022-09-23T04:04:05.455Z,100297.50
2022-09-23T04:06:32.830Z,100301.53
2022-09-23T04:09:01.628Z,100289.50
2022-09-23T04:11:29.610Z,100284.56
2022-09-23T04:13:56.984Z,100280.31
2022-09-23T04:16:24.960Z,100269.16
2022-09-23T04:18:52.492Z,100254.44
2022-09-23T04:21:20.033Z,100253.88
2022-09-23T04:23:47.536Z,100255.31
2022-09-23T04:26:16.270Z,100257.59
2022-09-23T04:28:44.068Z,100255.94
2022-09-23T04:31:13.122Z,100274.81
2022-09-23T04:33:41.100Z,100282.09
2022-09-23T04:36:08.512Z,100290.38
2022-09-23T04:38:36.200Z,100279.63
2022-09-23T04:41:03.477Z,100274.41
2022-09-23T04:43:30.767Z,100262.25
2022-09-23T04:46:02.479Z,100257.16
2022-09-23T04:48:30.113Z,100248.63
2022-09-23T04:51:13.200Z,100249.72
2022-09-23T04:53:44.881Z,100257.13
2022-09-23T04:56:17.551Z,100237.22
2022-09-23T04:58:48.584Z,100259.44
2022-09-23T05:01:27.715Z,100251.19
2022-09-23T05:04:02.438Z,100248.53
2022-09-23T05:06:31.572Z,100256.06
2022-09-23T05:08:59.511Z,100258.16
2022-09-23T05:11:30.073Z,100246.47
2022-09-23T05:13:58.076Z,100255.06
2022-09-23T05:16:26.741Z,100254.50
2022-09-23T05:18:54.827Z,100250.81
2022-09-23T05:21:24.751Z,100249.25
2022-09-23T05:23:55.362Z,100243.56
2022-09-23T05:26:25.579Z,100242.72
2022-09-23T05:28:53.965Z,100246.19
2022-09-23T05:31:26.208Z,100243.25
2022-09-23T05:33:57.468Z,100248.13
2022-09-23T05:36:25.803Z,100258.13
2022-09-23T05:38:54.756Z,100259.22
2022-09-23T05:41:23.291Z,100263.69
2022-09-23T05:43:52.521Z,100263.72
2022-09-23T05:46:25.324Z,100258.25
2022-09-23T05:48:52.676Z,100258.13
2022-09-23T05:51:22.181Z,100254.16
2022-09-23T05:53:51.286Z,100255.66
2022-09-23T05:56:21.462Z,100255.50
2022-09-23T05:58:50.259Z,100256.13
2022-09-23T06:01:25.214Z,100257.09
2022-09-23T06:03:57.001Z,100260.94
2022-09-23T06:06:37.699Z,100259.16
2022-09-23T06:09:12.825Z,100257.16
2022-09-23T06:11:42.592Z,100261.47
2022-09-23T06:14:13.039Z,100266.59
2022-09-23T06:16:40.732Z,100268.38
2022-09-23T06:19:11.026Z,100271.47
2022-09-23T06:21:41.739Z,100269.69
2022-09-23T06:24:09.781Z,100281.81
2022-09-23T06:26:38.396Z,100285.78
2022-09-23T06:29:14.611Z,100281.59
2022-09-23T06:31:43.449Z,100280.16
2022-09-23T06:34:14.931Z,100287.25
2022-09-23T06:36:45.731Z,100281.63
2022-09-23T06:39:16.756Z,100280.78
2022-09-23T06:41:45.497Z,100280.00
2022-09-23T06:44:14.247Z,100292.09
2022-09-23T06:46:42.008Z,100286.38
2022-09-23T06:49:10.694Z,100276.69
2022-09-23T06:51:38.136Z,100286.88
2022-09-23T06:54:05.702Z,100292.75
2022-09-23T06:56:38.734Z,100291.88
2022-09-23T06:59:09.455Z,100281.84
2022-09-23T07:01:38.734Z,100280.97
2022-09-23T07:04:07.937Z,100274.69
2022-09-23T07:06:37.335Z,100277.13
2022-09-23T07:09:07.059Z,100274.81
2022-09-23T07:11:34.497Z,100288.94
2022-09-23T07:14:01.963Z,100281.88
2022-09-23T07:16:30.989Z,100273.88
2022-09-23T07:18:59.045Z,100268.63
2022-09-23T07:21:27.986Z,100279.50
2022-09-23T07:23:58.379Z,100260.97
2022-09-23T07:26:26.536Z,100257.06
2022-09-23T07:28:56.338Z,100253.13
2022-09-23T07:31:36.182Z,100256.22
2022-09-23T07:34:11.864Z,100244.66
2022-09-23T07:36:40.937Z,100243.97
2022-09-23T07:39:12.170Z,100232.91
2022-09-23T07:41:39.864Z,100238.84
2022-09-23T07:44:08.870Z,100240.56
2022-09-23T07:46:37.390Z,100242.91
2022-09-23T07:49:06.162Z,100258.59
2022-09-23T07:51:38.843Z,100266.44
2022-09-23T07:54:08.782Z,100249.59
2022-09-23T07:56:37.737Z,100251.28
2022-09-23T07:59:08.752Z,100253.66
2022-09-23T08:01:42.354Z,100267.09
2022-09-23T08:04:12.800Z,100260.97
2022-09-23T08:06:42.194Z,100270.84
2022-09-23T08:09:10.727Z,100259.81
2022-09-23T08:11:42.239Z,100260.28
2022-09-23T08:14:12.789Z,100256.91
2022-09-23T08:16:40.973Z,100256.91
2022-09-23T08:19:09.271Z,100252.81
2022-09-23T08:21:39.069Z,100247.50
2022-09-23T08:24:19.621Z,100249.78
2022-09-23T08:26:48.367Z,100242.72
2022-09-23T08:29:17.303Z,100243.97
2022-09-23T08:31:44.539Z,100246.59
2022-09-23T08:34:12.146Z,100256.06
2022-09-23T08:36:39.672Z,100253.41
2022-09-23T08:39:06.982Z,100240.66
2022-09-23T08:41:38.069Z,100241.72
2022-09-23T08:44:28.548Z,100252.81
2022-09-23T08:47:15.084Z,100237.13
2022-09-23T08:49:51.864Z,100233.34
2022-09-23T08:52:26.154Z,100242.72
2022-09-23T08:54:55.549Z,100237.41
2022-09-23T08:58:24.582Z,100250.00
2022-09-23T09:01:02.771Z,100246.69
2022-09-23T09:03:45.708Z,100240.91
2022-09-23T09:06:45.622Z,100237.34
2022-09-23T09:09:26.653Z,100238.19
2022-09-23T09:12:10.029Z,100233.09
2022-09-23T09:14:55.382Z,100236.50
2022-09-23T09:17:39.870Z,100235.66
2022-09-23T09:20:19.085Z,100243.31
2022-09-23T09:22:49.227Z,100243.44
2022-09-23T09:25:35.498Z,100246.69
2022-09-23T09:28:10.980Z,100252.31
2022-09-23T09:30:38.788Z,100245.69
2022-09-23T09:33:15.336Z,100253.34
2022-09-23T09:36:10.395Z,100255.22
2022-09-23T09:38:38.152Z,100257.22
2022-09-23T09:41:17.083Z,100252.94
2022-09-23T09:43:48.552Z,100248.50
2022-09-23T09:46:45.264Z,100240.66
2022-09-23T09:49:47.575Z,100240.16
2022-09-23T09:52:26.148Z,100235.84
2022-09-23T09:54:54.189Z,100236.44
2022-09-23T09:57:40.064Z,100244.34
2022-09-23T10:00:20.416Z,100241.41
2022-09-23T10:02:52.915Z,100241.66
2022-09-23T10:05:26.057Z,100233.38
2022-09-23T10:07:54.286Z,100235.97
2022-09-23T10:10:33.841Z,100237.66
2022-09-23T10:13:15.353Z,100239.72
2022-09-23T10:15:45.318Z,100240.34
2022-09-23T10:18:37.444Z,100230.72
2022-09-23T10:21:08.936Z,100235.25
2022-09-23T10:23:42.683Z,100223.50
2022-09-23T10:26:12.149Z,100222.13
2022-09-23T10:28:50.797Z,100228.44
2022-09-23T10:31:32.199Z,100228.34
2022-09-23T10:34:01.977Z,100235.75
2022-09-23T10:36:32.399Z,100232.81
2022-09-23T10:39:40.448Z,100233.69
2022-09-23T10:42:38.016Z,100233.22
2022-09-23T10:45:39.727Z,100236.06
2022-09-23T10:48:14.216Z,100237.09
2022-09-23T10:50:52.031Z,100236.25
2022-09-23T10:53:52.097Z,100243.22
2022-09-23T10:56:43.232Z,100235.38
2022-09-23T10:59:41.244Z,100237.94
2022-09-23T11:02:29.481Z,100237.75
2022-09-23T11:05:40.393Z,100233.38
2022-09-23T11:08:43.002Z,100230.81
2022-09-23T11:11:21.987Z,100234.91
2022-09-23T11:13:54.583Z,100233.72
2022-09-23T11:16:51.117Z,100225.03
2022-09-23T11:19:57.796Z,100226.56
2022-09-23T11:23:12.821Z,100215.28
2022-09-23T11:26:01.231Z,100213.19
2022-09-23T11:28:45.501Z,100215.72
2022-09-23T11:31:31.184Z,100212.31
2022-09-23T11:33:58.559Z,100212.81
2022-09-23T11:36:35.860Z,100213.13
2022-09-23T11:39:13.263Z,100217.38
2022-09-23T11:41:44.446Z,100212.22
2022-09-23T11:44:22.638Z,100218.88
2022-09-23T11:47:00.226Z,100213.25
2022-09-23T11:49:35.436Z,100212.53
2022-09-23T11:52:19.702Z,100212.19
2022-09-23T11:55:04.737Z,100207.59
2022-09-23T11:57:49.373Z,100214.56
2022-09-23T12:00:29.793Z,100212.69
2022-09-23T12:03:06.619Z,100222.56
2022-09-23T12:05:42.538Z,100225.94
2022-09-23T12:08:22.421Z,100223.59
2022-09-23T12:11:06.760Z,100214.28
2022-09-23T12:13:52.729Z,100219.94
2022-09-23T12:16:39.219Z,100222.63
2022-09-23T12:19:28.398Z,100215.50
2022-09-23T12:22:20.129Z,100210.88
2022-09-23T12:24:55.615Z,100216.34
2022-09-23T12:27:29.390Z,100218.22
2022-09-23T12:30:01.264Z,100222.59
2022-09-23T12:32:29.273Z,100221.03
2022-09-23T12:34:57.018Z,100216.78
2022-09-23T12:37:31.950Z,100221.41
2022-09-23T12:40:14.238Z,100219.94
2022-09-23T12:42:44.283Z,100214.47
2022-09-23T12:45:33.908Z,100221.81
2022-09-23T12:48:21.449Z,100232.38
2022-09-23T12:51:15.969Z,100226.53
2022-09-23T12:53:55.293Z,100224.63
2022-09-23T12:56:54.149Z,100223.25
2022-09-23T12:59:28.142Z,100216.06
2022-09-23T13:01:56.222Z,100225.41
2022-09-23T13:05:00.301Z,100223.81
2022-09-23T13:07:34.291Z,100228.59
2022-09-23T13:10:27.943Z,100225.81
2022-09-23T13:12:56.270Z,100229.94
2022-09-23T13:15:41.934Z,100237.63
2022-09-23T13:18:22.931Z,100228.84
2022-09-23T13:20:51.927Z,100231.09
2022-09-23T13:23:26.104Z,100231.16
2022-09-23T13:25:59.847Z,100233.34
2022-09-23T13:28:37.128Z,100233.88
2022-09-23T13:31:06.986Z,100233.88
2022-09-23T13:33:40.209Z,100227.41
2022-09-23T13:36:13.423Z,100235.94
2022-09-23T13:38:41.311Z,100238.16
2022-09-23T13:41:28.776Z,100240.72
2022-09-23T13:44:00.499Z,100238.38
2022-09-23T13:46:38.349Z,100247.38
2022-09-23T13:49:05.917Z,100248.22
2022-09-23T13:51:34.903Z,100242.13
2022-09-23T13:54:03.988Z,100244.13
2022-09-23T13:56:33.425Z,100239.00
2022-09-23T13:59:19.665Z,100254.47
2022-09-23T14:01:47.279Z,100254.59
2022-09-23T14:04:25.434Z,100253.41
2022-09-23T14:06:53.866Z,100255.78
2022-09-23T14:09:27.742Z,100262.19
2022-09-23T14:11:57.331Z,100263.56
2022-09-23T14:14:27.202Z,100261.56
2022-09-23T14:16:56.146Z,100272.78
2022-09-23T14:19:24.165Z,100279.75
2022-09-23T14:21:53.572Z,100272.97
2022-09-23T14:24:30.131Z,100277.72
2022-09-23T14:27:06.597Z,100278.06
2022-09-23T14:29:43.484Z,100278.22
2022-09-23T14:32:15.677Z,100281.66
2022-09-23T14:34:45.545Z,100276.22
2022-09-23T14:37:37.508Z,100270.41
2022-09-23T14:40:17.185Z,100280.91
2022-09-23T14:42:52.931Z,100279.69
2022-09-23T14:45:22.195Z,100278.44
2022-09-23T14:47:52.879Z,100279.56
2022-09-23T14:50:40.098Z,100274.41
2022-09-23T14:53:30.151Z,100277.06
2022-09-23T14:56:06.789Z,100280.63
2022-09-23T14:58:51.743Z,100282.56
2022-09-23T15:01:32.324Z,100283.28
2022-09-23T15:04:10.025Z,100281.31
2022-09-23T15:06:42.127Z,100286.97
2022-09-23T15:09:12.051Z,100291.22
2022-09-23T15:11:40.060Z,100291.28
2022-09-23T15:14:36.084Z,100294.50
2022-09-23T15:16:58.666Z,100297.44
2022-09-23T15:19:27.284Z,100306.47
2022-09-23T15:21:54.886Z,100306.50
2022-09-23T15:24:35.361Z,100298.72
2022-09-23T15:27:03.154Z,100305.91
2022-09-23T15:29:33.271Z,100314.06
2022-09-23T15:32:00.894Z,100300.88
2022-09-23T15:34:28.265Z,100299.06
2022-09-23T15:36:55.542Z,100305.19
2022-09-23T15:39:31.944Z,100301.34
2022-09-23T15:42:02.966Z,100306.66
2022-09-23T15:44:30.306Z,100304.38
2022-09-23T15:47:02.277Z,100309.50
2022-09-23T15:49:36.335Z,100307.34
2022-09-23T15:52:05.315Z,100311.34
2022-09-23T15:54:33.850Z,100317.75
2022-09-23T15:57:01.419Z,100315.78
2022-09-23T15:59:31.154Z,100316.91
2022-09-23T16:02:02.358Z,100317.31
2022-09-23T16:04:31.541Z,100310.91
2022-09-23T16:06:59.193Z,100320.44
2022-09-23T16:09:30.966Z,100316.44
2022-09-23T16:11:58.614Z,100321.34
2022-09-23T16:14:28.043Z,100311.22
2022-09-23T16:16:56.308Z,100327.31
2022-09-23T16:19:23.744Z,100325.13
2022-09-23T16:21:51.069Z,100323.31
2022-09-23T16:24:19.187Z,100324.44
2022-09-23T16:26:47.668Z,100323.72
2022-09-23T16:29:15.149Z,100325.91
2022-09-23T16:31:43.052Z,100326.31
2022-09-23T16:34:10.531Z,100322.03
2022-09-23T16:36:40.661Z,100332.84
2022-09-23T16:39:11.330Z,100324.00
2022-09-23T16:41:39.953Z,100330.97
2022-09-23T16:44:09.434Z,100325.41
2022-09-23T16:46:36.981Z,100335.00
2022-09-23T16:49:04.615Z,100337.41
2022-09-23T16:51:38.552Z,100328.16
2022-09-23T16:54:11.274Z,100335.28
2022-09-23T16:56:44.433Z,100338.53
2022-09-23T16:59:13.762Z,100340.97
2022-09-23T17:02:00.742Z,100334.56
2022-09-23T17:04:29.051Z,100339.69
2022-09-23T17:06:56.739Z,100340.66
2022-09-23T17:09:30.252Z,100342.22
2022-09-23T17:12:15.653Z,100337.94
2022-09-23T17:14:44.382Z,100340.81
2022-09-23T17:17:11.634Z,100346.38
2022-09-23T17:19:41.401Z,100346.50
2022-09-23T17:22:09.925Z,100346.78
2022-09-23T17:24:37.480Z,100343.53
2022-09-23T17:27:04.783Z,100343.81
2022-09-23T17:29:32.455Z,100338.56
2022-09-23T17:32:00.145Z,100338.66
2022-09-23T17:34:28.949Z,100345.69
2022-09-23T17:36:56.639Z,100335.88
2022-09-23T17:39:24.647Z,100339.41
2022-09-23T17:41:55.556Z,100341.97
2022-09-23T17:44:24.377Z,100334.00
2022-09-23T17:46:52.323Z,100338.41
2022-09-23T17:49:20.398Z,100338.56
2022-09-23T17:51:47.874Z,100330.72
2022-09-23T17:54:15.222Z,100338.81
2022-09-23T17:56:42.853Z,100334.41
2022-09-23T17:59:13.350Z,100341.66
2022-09-23T18:01:40.823Z,100339.09
2022-09-23T18:04:08.310Z,100350.06
2022-09-23T18:06:37.390Z,100350.19
2022-09-23T18:09:07.524Z,100344.66
2022-09-23T18:11:37.855Z,100353.75
2022-09-23T18:14:07.655Z,100351.94
2022-09-23T18:16:36.788Z,100355.59
2022-09-23T18:19:05.333Z,100344.94
2022-09-23T18:21:35.762Z,100363.03
2022-09-23T18:24:28.581Z,100362.03
2022-09-23T18:26:51.391Z,100363.88
2022-09-23T18:29:22.331Z,100367.59
2022-09-23T18:31:51.070Z,100366.00
2022-09-23T18:34:18.694Z,100372.16
2022-09-23T18:36:46.334Z,100369.44
2022-09-23T18:39:13.877Z,100374.97
2022-09-23T18:41:41.586Z,100374.13
2022-09-23T18:44:09.756Z,100371.56
2022-09-23T18:46:37.639Z,100375.28
2022-09-23T18:49:30.320Z,100378.09
2022-09-23T18:52:12.431Z,100379.97
2022-09-23T18:54:39.921Z,100382.81
2022-09-23T18:57:07.828Z,100374.13
2022-09-23T18:59:36.422Z,100375.84
2022-09-23T19:02:06.441Z,100371.56
2022-09-23T19:04:36.485Z,100364.59
2022-09-23T19:07:06.496Z,100368.44
2022-09-23T19:09:34.026Z,100360.47
2022-09-23T19:12:03.412Z,100360.75
2022-09-23T19:14:30.835Z,100357.47
2022-09-23T19:17:00.400Z,100367.59
2022-09-23T19:19:30.320Z,100372.41
2022-09-23T19:21:58.021Z,100367.28
2022-09-23T19:24:25.398Z,100365.44
2022-09-23T19:26:54.362Z,100357.63
2022-09-23T19:29:22.236Z,100360.44
2022-09-23T19:31:50.226Z,100355.19
2022-09-23T19:34:29.392Z,100354.63
2022-09-23T19:36:57.821Z,100361.03
2022-09-23T19:39:27.858Z,100348.50
2022-09-23T19:41:59.173Z,100347.09
2022-09-23T19:44:27.482Z,100345.50
2022-09-23T19:46:57.298Z,100340.25
2022-09-23T19:49:25.845Z,100341.22
2022-09-23T19:51:56.184Z,100337.97
2022-09-23T19:54:26.733Z,100345.34
2022-09-23T19:56:54.632Z,100340.78
2022-09-23T19:59:22.327Z,100348.91
2022-09-23T20:01:51.953Z,100331.00
2022-09-23T20:04:19.468Z,100341.06
2022-09-23T20:06:47.831Z,100332.00
2022-09-23T20:09:15.633Z,100331.25
2022-09-23T20:11:43.258Z,100327.97
2022-09-23T20:14:12.002Z,100331.84
2022-09-23T20:16:40.625Z,100331.41
2022-09-23T20:19:10.046Z,100321.41
2022-09-23T20:21:37.799Z,100322.25
2022-09-23T20:24:07.104Z,100321.09
2022-09-23T20:26:53.109Z,100321.06
2022-09-23T20:29:20.961Z,100314.75
2022-09-23T20:31:49.682Z,100317.44
2022-09-23T20:34:17.345Z,100314.66
2022-09-23T20:36:44.991Z,100305.81
2022-09-23T20:39:13.267Z,100319.09
2022-09-23T20:41:41.822Z,100315.66
2022-09-23T20:44:12.793Z,100315.31
2022-09-23T20:46:47.550Z,100311.59
2022-09-23T20:49:17.338Z,100314.22
2022-09-23T20:51:44.975Z,100318.41
2022-09-23T20:54:12.518Z,100325.31
2022-09-23T20:56:40.307Z,100318.16
2022-09-23T20:59:09.401Z,100324.78
2022-09-23T21:01:37.272Z,100318.09
2022-09-23T21:04:05.927Z,100315.91
2022-09-23T21:06:36.294Z,100321.22
2022-09-23T21:09:04.799Z,100315.56
2022-09-23T21:11:34.072Z,100315.22
2022-09-23T21:14:02.315Z,100306.06
2022-09-23T21:16:30.378Z,100310.84
2022-09-23T21:18:58.189Z,100310.28
2022-09-23T21:21:26.306Z,100317.00
2022-09-23T21:23:53.647Z,100302.22
2022-09-23T21:26:23.423Z,100307.00
2022-09-23T21:29:01.507Z,100306.28
2022-09-23T21:31:34.585Z,100303.22
2022-09-23T21:34:04.507Z,100300.16
2022-09-23T21:36:34.811Z,100297.22
2022-09-23T21:39:03.067Z,100296.88
2022-09-23T21:41:30.604Z,100309.13
2022-09-23T21:43:57.907Z,100312.94
2022-09-23T21:46:26.198Z,100300.56
2022-09-23T21:48:57.466Z,100295.19
2022-09-23T21:51:26.648Z,100298.25
2022-09-23T21:53:55.565Z,100308.78
2022-09-23T21:56:25.192Z,100306.94
2022-09-23T21:58:57.155Z,100309.50
2022-09-23T22:01:26.599Z,100308.41
2022-09-23T22:03:56.635Z,100306.66
2022-09-23T22:06:27.203Z,100305.09
2022-09-23T22:09:00.858Z,100304.09
2022-09-23T22:11:49.068Z,100299.94
2022-09-23T22:14:17.608Z,100301.03
2022-09-23T22:16:47.611Z,100300.47
2022-09-23T22:19:15.830Z,100299.00
2022-09-23T22:21:45.607Z,100306.53
2022-09-23T22:24:14.280Z,100294.59
2022-09-23T22:26:43.753Z,100293.72
2022-09-23T22:29:31.477Z,100290.41
2022-09-23T22:32:19.004Z,100305.09
2022-09-23T22:34:50.520Z,100300.06
2022-09-23T22:37:21.860Z,100288.47
2022-09-23T22:39:49.173Z,100284.19
2022-09-23T22:42:16.571Z,100294.31
2022-09-23T22:44:44.291Z,100291.00
2022-09-23T22:47:11.574Z,100284.16
2022-09-23T22:49:40.945Z,100293.34
2022-09-23T22:52:08.575Z,100289.16
2022-09-23T22:54:36.497Z,100286.09
2022-09-23T22:57:05.567Z,100282.69
2022-09-23T22:59:33.793Z,100289.13
2022-09-23T23:02:03.014Z,100288.41
2022-09-23T23:04:31.521Z,100279.72
2022-09-23T23:06:59.103Z,100275.41
2022-09-23T23:09:32.337Z,100275.78
2022-09-23T23:11:59.743Z,100277.81
2022-09-23T23:14:28.031Z,100282.72
2022-09-23T23:16:55.362Z,100273.16
2022-09-23T23:19:23.685Z,100272.66
2022-09-23T23:21:51.146Z,100271.31
2022-09-23T23:24:23.289Z,100276.78
2022-09-23T23:26:51.497Z,100272.63
2022-09-23T23:29:20.515Z,100272.84
2022-09-23T23:31:48.394Z,100272.84
2022-09-23T23:34:20.880Z,100275.66
2022-09-23T23:36:55.108Z,100269.66
2022-09-23T23:39:24.617Z,100270.66
2022-09-23T23:41:55.858Z,100270.78
2022-09-23T23:44:24.799Z,100270.50
2022-09-23T23:46:53.059Z,100268.94
2022-09-23T23:49:20.555Z,100280.66
2022-09-23T23:51:48.067Z,100274.53
2022-09-23T23:54:15.814Z,100265.00
2022-09-23T23:56:43.261Z,100270.59
2022-09-23T23:59:11.126Z,100260.09
